sensor_id;sensor_type;location;lat;lon;timestamp;pressure;altitude;pressure_sealevel;temperature;humidity
16255;BME280;8235;52.198;9.904;2022-08-02T00:00:28;101171.97;;;15.97;70.27
16255;BME280;8235;52.198;9.904;2022-08-02T00:02:54;101169.66;;;15.93;70.76
16255;BME280;8235;52.198;9.904;2022-08-02T00:05:21;101166.34;;;15.89;71.22
16255;BME280;8235;52.198;9.904;2022-08-02T00:07:47;101162.81;;;15.89;71.62
16255;BME280;8235;52.198;9.904;2022-08-02T00:10:14;101164.88;;;15.85;71.10
16255;BME280;8235;52.198;9.904;2022-08-02T00:12:42;101164.59;;;15.77;71.35
16255;BME280;8235;52.198;9.904;2022-08-02T00:15:09;101159.81;;;15.70;71.52
16255;BME280;8235;52.198;9.904;2022-08-02T00:17:36;101152.13;;;15.65;71.85
16255;BME280;8235;52.198;9.904;2022-08-02T00:20:04;101142.56;;;15.61;72.84
16255;BME280;8235;52.198;9.904;2022-08-02T00:22:31;101143.53;;;15.60;73.21
16255;BME280;8235;52.198;9.904;2022-08-02T00:24:57;101150.63;;;15.61;73.71
16255;BME280;8235;52.198;9.904;2022-08-02T00:27:24;101154.06;;;15.63;73.94
16255;BME280;8235;52.198;9.904;2022-08-02T00:29:52;101151.16;;;15.66;74.09
16255;BME280;8235;52.198;9.904;2022-08-02T00:32:19;101151.88;;;15.68;73.97
16255;BME280;8235;52.198;9.904;2022-08-02T00:34:46;101155.53;;;15.67;73.87
16255;BME280;8235;52.198;9.904;2022-08-02T00:37:15;101149.53;;;15.63;73.25
16255;BME280;8235;52.198;9.904;2022-08-02T00:39:42;101151.88;;;15.57;73.48
16255;BME280;8235;52.198;9.904;2022-08-02T00:42:09;101159.13;;;15.55;73.56
16255;BME280;8235;52.198;9.904;2022-08-02T00:44:36;101162.78;;;15.54;73.72
16255;BME280;8235;52.198;9.904;2022-08-02T00:47:04;101155.72;;;15.53;74.08
16255;BME280;8235;52.198;9.904;2022-08-02T00:49:31;101163.66;;;15.54;73.98
16255;BME280;8235;52.198;9.904;2022-08-02T00:51:57;101163.66;;;15.54;74.31
16255;BME280;8235;52.198;9.904;2022-08-02T00:54:24;101165.47;;;15.54;74.63
16255;BME280;8235;52.198;9.904;2022-08-02T00:56:51;101166.56;;;15.51;74.18
16255;BME280;8235;52.198;9.904;2022-08-02T00:59:17;101175.81;;;15.47;74.17
16255;BME280;8235;52.198;9.904;2022-08-02T01:01:44;101169.81;;;15.44;74.06
16255;BME280;8235;52.198;9.904;2022-08-02T01:04:13;101171.03;;;15.40;74.55
16255;BME280;8235;52.198;9.904;2022-08-02T01:06:41;101163.22;;;15.37;74.42
16255;BME280;8235;52.198;9.904;2022-08-02T01:09:08;101172.56;;;15.31;73.91
16255;BME280;8235;52.198;9.904;2022-08-02T01:11:35;101171.44;;;15.22;73.73
16255;BME280;8235;52.198;9.904;2022-08-02T01:14:05;101170.28;;;15.14;73.76
16255;BME280;8235;52.198;9.904;2022-08-02T01:16:35;101164.00;;;15.02;73.85
16255;BME280;8235;52.198;9.904;2022-08-02T01:19:20;101158.88;;;14.99;74.53
16255;BME280;8235;52.198;9.904;2022-08-02T01:22:10;101165.31;;;14.97;74.82
16255;BME280;8235;52.198;9.904;2022-08-02T01:25:02;101161.03;;;14.94;74.86
16255;BME280;8235;52.198;9.904;2022-08-02T01:27:42;101158.69;;;14.89;74.54
16255;BME280;8235;52.198;9.904;2022-08-02T01:30:15;101155.72;;;14.81;74.06
16255;BME280;8235;52.198;9.904;2022-08-02T01:32:47;101154.53;;;14.73;74.54
16255;BME280;8235;52.198;9.904;2022-08-02T01:35:19;101153.50;;;14.63;74.68
16255;BME280;8235;52.198;9.904;2022-08-02T01:37:50;101154.47;;;14.62;75.02
16255;BME280;8235;52.198;9.904;2022-08-02T01:40:21;101161.75;;;14.59;75.47
16255;BME280;8235;52.198;9.904;2022-08-02T01:42:52;101152.97;;;14.57;75.37
16255;BME280;8235;52.198;9.904;2022-08-02T01:45:24;101152.00;;;14.58;75.84
16255;BME280;8235;52.198;9.904;2022-08-02T01:47:52;101141.41;;;14.57;76.11
16255;BME280;8235;52.198;9.904;2022-08-02T01:50:23;101147.81;;;14.54;75.76
16255;BME280;8235;52.198;9.904;2022-08-02T01:52:54;101150.63;;;14.53;75.93
16255;BME280;8235;52.198;9.904;2022-08-02T01:55:23;101146.38;;;14.50;75.51
16255;BME280;8235;52.198;9.904;2022-08-02T01:57:52;101150.97;;;14.48;75.67
16255;BME280;8235;52.198;9.904;2022-08-02T02:00:23;101147.31;;;14.49;76.43
16255;BME280;8235;52.198;9.904;2022-08-02T02:02:53;101158.03;;;14.49;76.54
16255;BME280;8235;52.198;9.904;2022-08-02T02:05:22;101158.25;;;14.46;76.56
16255;BME280;8235;52.198;9.904;2022-08-02T02:07:54;101153.00;;;14.45;76.31
16255;BME280;8235;52.198;9.904;2022-08-02T02:10:25;101159.34;;;14.44;76.42
16255;BME280;8235;52.198;9.904;2022-08-02T02:12:54;101158.75;;;14.39;75.82
16255;BME280;8235;52.198;9.904;2022-08-02T02:15:24;101153.22;;;14.29;75.77
16255;BME280;8235;52.198;9.904;2022-08-02T02:17:52;101154.59;;;14.22;75.38
16255;BME280;8235;52.198;9.904;2022-08-02T02:20:20;101154.06;;;14.17;75.53
16255;BME280;8235;52.198;9.904;2022-08-02T02:22:47;101143.59;;;14.14;76.17
16255;BME280;8235;52.198;9.904;2022-08-02T02:25:16;101148.94;;;14.14;76.21
16255;BME280;8235;52.198;9.904;2022-08-02T02:27:48;101139.19;;;14.13;76.32
16255;BME280;8235;52.198;9.904;2022-08-02T02:30:17;101146.56;;;14.09;76.22
16255;BME280;8235;52.198;9.904;2022-08-02T02:32:46;101151.50;;;14.03;76.38
16255;BME280;8235;52.198;9.904;2022-08-02T02:35:15;101141.22;;;13.97;76.54
16255;BME280;8235;52.198;9.904;2022-08-02T02:37:43;101144.22;;;13.92;76.37
16255;BME280;8235;52.198;9.904;2022-08-02T02:40:11;101146.25;;;13.88;77.06
16255;BME280;8235;52.198;9.904;2022-08-02T02:42:39;101137.47;;;13.86;77.28
16255;BME280;8235;52.198;9.904;2022-08-02T02:45:08;101141.19;;;13.84;77.18
16255;BME280;8235;52.198;9.904;2022-08-02T02:47:36;101141.31;;;13.82;77.44
16255;BME280;8235;52.198;9.904;2022-08-02T02:50:06;101137.75;;;13.82;77.79
16255;BME280;8235;52.198;9.904;2022-08-02T02:52:34;101134.22;;;13.81;78.09
16255;BME280;8235;52.198;9.904;2022-08-02T02:55:02;101141.41;;;13.81;77.79
16255;BME280;8235;52.198;9.904;2022-08-02T02:57:29;101133.28;;;13.82;78.13
16255;BME280;8235;52.198;9.904;2022-08-02T02:59:56;101134.13;;;13.83;78.07
16255;BME280;8235;52.198;9.904;2022-08-02T03:02:23;101118.28;;;13.80;78.29
16255;BME280;8235;52.198;9.904;2022-08-02T03:04:51;101113.25;;;13.75;77.99
16255;BME280;8235;52.198;9.904;2022-08-02T03:07:20;101120.53;;;13.73;78.42
16255;BME280;8235;52.198;9.904;2022-08-02T03:09:47;101119.69;;;13.73;78.90
16255;BME280;8235;52.198;9.904;2022-08-02T03:12:13;101116.91;;;13.74;78.99
16255;BME280;8235;52.198;9.904;2022-08-02T03:14:41;101120.34;;;13.76;79.40
16255;BME280;8235;52.198;9.904;2022-08-02T03:17:08;101123.00;;;13.76;79.24
16255;BME280;8235;52.198;9.904;2022-08-02T03:19:35;101114.00;;;13.77;79.77
16255;BME280;8235;52.198;9.904;2022-08-02T03:22:02;101111.09;;;13.80;79.76
16255;BME280;8235;52.198;9.904;2022-08-02T03:24:30;101109.38;;;13.79;79.59
16255;BME280;8235;52.198;9.904;2022-08-02T03:26:57;101113.16;;;13.77;79.30
16255;BME280;8235;52.198;9.904;2022-08-02T03:29:23;101118.63;;;13.75;80.04
16255;BME280;8235;52.198;9.904;2022-08-02T03:31:50;101123.13;;;13.75;79.64
16255;BME280;8235;52.198;9.904;2022-08-02T03:34:17;101115.38;;;13.70;79.53
16255;BME280;8235;52.198;9.904;2022-08-02T03:36:44;101113.22;;;13.63;78.98
16255;BME280;8235;52.198;9.904;2022-08-02T03:39:14;101108.53;;;13.53;78.83
16255;BME280;8235;52.198;9.904;2022-08-02T03:41:42;101117.81;;;13.48;79.20
16255;BME280;8235;52.198;9.904;2022-08-02T03:44:10;101126.81;;;13.47;79.77
16255;BME280;8235;52.198;9.904;2022-08-02T03:46:38;101124.31;;;13.44;79.63
16255;BME280;8235;52.198;9.904;2022-08-02T03:49:05;101121.13;;;13.39;79.54
16255;BME280;8235;52.198;9.904;2022-08-02T03:51:33;101122.28;;;13.35;79.87
16255;BME280;8235;52.198;9.904;2022-08-02T03:54:00;101116.38;;;13.30;80.13
16255;BME280;8235;52.198;9.904;2022-08-02T03:56:27;101115.00;;;13.24;80.18
16255;BME280;8235;52.198;9.904;2022-08-02T03:59:06;101108.34;;;13.17;80.32
16255;BME280;8235;52.198;9.904;2022-08-02T04:01:32;101118.34;;;13.13;81.03
16255;BME280;8235;52.198;9.904;2022-08-02T04:03:59;101118.28;;;13.15;81.20
16255;BME280;8235;52.198;9.904;2022-08-02T04:06:25;101119.13;;;13.15;81.67
16255;BME280;8235;52.198;9.904;2022-08-02T04:08:52;101122.66;;;13.16;81.93
16255;BME280;8235;52.198;9.904;2022-08-02T04:11:18;101128.97;;;13.15;82.16
16255;BME280;8235;52.198;9.904;2022-08-02T04:13:58;101124.38;;;13.17;82.10
16255;BME280;8235;52.198;9.904;2022-08-02T04:16:33;101135.06;;;13.17;82.46
16255;BME280;8235;52.198;9.904;2022-08-02T04:19:06;101141.09;;;13.20;83.24
16255;BME280;8235;52.198;9.904;2022-08-02T04:21:36;101149.88;;;13.23;83.12
16255;BME280;8235;52.198;9.904;2022-08-02T04:24:07;101144.53;;;13.23;83.12
16255;BME280;8235;52.198;9.904;2022-08-02T04:26:35;101148.06;;;13.23;83.33
16255;BME280;8235;52.198;9.904;2022-08-02T04:29:03;101149.88;;;13.23;83.71
16255;BME280;8235;52.198;9.904;2022-08-02T04:31:31;101157.66;;;13.26;83.94
16255;BME280;8235;52.198;9.904;2022-08-02T04:33:59;101155.75;;;13.28;84.01
16255;BME280;8235;52.198;9.904;2022-08-02T04:36:25;101152.13;;;13.29;83.79
16255;BME280;8235;52.198;9.904;2022-08-02T04:38:52;101146.88;;;13.27;83.37
16255;BME280;8235;52.198;9.904;2022-08-02T04:41:19;101147.09;;;13.24;83.16
16255;BME280;8235;52.198;9.904;2022-08-02T04:43:45;101145.38;;;13.23;83.51
16255;BME280;8235;52.198;9.904;2022-08-02T04:46:12;101140.13;;;13.22;83.55
16255;BME280;8235;52.198;9.904;2022-08-02T04:48:40;101141.00;;;13.22;83.97
16255;BME280;8235;52.198;9.904;2022-08-02T04:51:07;101136.50;;;13.23;84.39
16255;BME280;8235;52.198;9.904;2022-08-02T04:53:33;101130.91;;;13.26;84.57
16255;BME280;8235;52.198;9.904;2022-08-02T04:56:00;101136.16;;;13.27;84.83
16255;BME280;8235;52.198;9.904;2022-08-02T04:58:26;101135.00;;;13.31;85.12
16255;BME280;8235;52.198;9.904;2022-08-02T05:00:53;101131.28;;;13.34;85.08
16255;BME280;8235;52.198;9.904;2022-08-02T05:03:19;101133.84;;;13.35;85.50
16255;BME280;8235;52.198;9.904;2022-08-02T05:05:47;101130.13;;;13.38;85.73
16255;BME280;8235;52.198;9.904;2022-08-02T05:08:14;101131.63;;;13.42;85.89
16255;BME280;8235;52.198;9.904;2022-08-02T05:10:40;101134.06;;;13.45;86.23
16255;BME280;8235;52.198;9.904;2022-08-02T05:13:07;101134.81;;;13.47;86.43
16255;BME280;8235;52.198;9.904;2022-08-02T05:15:33;101143.50;;;13.50;86.67
16255;BME280;8235;52.198;9.904;2022-08-02T05:18:00;101139.88;;;13.51;86.82
16255;BME280;8235;52.198;9.904;2022-08-02T05:20:27;101144.16;;;13.54;86.74
16255;BME280;8235;52.198;9.904;2022-08-02T05:22:55;101144.94;;;13.56;87.18
16255;BME280;8235;52.198;9.904;2022-08-02T05:25:21;101146.44;;;13.60;87.36
16255;BME280;8235;52.198;9.904;2022-08-02T05:27:48;101141.72;;;13.64;87.13
16255;BME280;8235;52.198;9.904;2022-08-02T05:30:14;101141.41;;;13.68;87.74
16255;BME280;8235;52.198;9.904;2022-08-02T05:32:46;101140.13;;;13.74;87.71
16255;BME280;8235;52.198;9.904;2022-08-02T05:35:15;101139.59;;;13.81;87.97
16255;BME280;8235;52.198;9.904;2022-08-02T05:37:42;101145.28;;;13.89;88.12
16255;BME280;8235;52.198;9.904;2022-08-02T05:40:11;101137.69;;;13.96;88.03
16255;BME280;8235;52.198;9.904;2022-08-02T05:42:37;101148.50;;;14.07;88.63
16255;BME280;8235;52.198;9.904;2022-08-02T05:45:05;101144.31;;;14.16;88.45
16255;BME280;8235;52.198;9.904;2022-08-02T05:47:32;101150.00;;;14.24;88.31
16255;BME280;8235;52.198;9.904;2022-08-02T05:49:59;101145.94;;;14.31;87.31
16255;BME280;8235;52.198;9.904;2022-08-02T05:52:34;101147.19;;;14.38;87.46
16255;BME280;8235;52.198;9.904;2022-08-02T05:55:05;101147.66;;;14.45;87.27
16255;BME280;8235;52.198;9.904;2022-08-02T05:57:38;101152.44;;;14.52;87.19
16255;BME280;8235;52.198;9.904;2022-08-02T06:00:08;101152.75;;;14.61;86.64
16255;BME280;8235;52.198;9.904;2022-08-02T06:02:51;101159.25;;;14.69;86.17
16255;BME280;8235;52.198;9.904;2022-08-02T06:05:25;101159.56;;;14.77;85.85
16255;BME280;8235;52.198;9.904;2022-08-02T06:07:54;101158.94;;;14.86;85.58
16255;BME280;8235;52.198;9.904;2022-08-02T06:10:26;101152.88;;;14.96;85.18
16255;BME280;8235;52.198;9.904;2022-08-02T06:13:00;101156.56;;;15.06;84.75
16255;BME280;8235;52.198;9.904;2022-08-02T06:15:29;101156.66;;;15.17;84.21
16255;BME280;8235;52.198;9.904;2022-08-02T06:17:56;101158.41;;;15.29;84.20
16255;BME280;8235;52.198;9.904;2022-08-02T06:20:23;101155.66;;;15.42;83.13
16255;BME280;8235;52.198;9.904;2022-08-02T06:22:51;101154.00;;;15.52;82.54
16255;BME280;8235;52.198;9.904;2022-08-02T06:25:18;101163.81;;;15.64;82.19
16255;BME280;8235;52.198;9.904;2022-08-02T06:27:48;101151.44;;;15.74;81.07
16255;BME280;8235;52.198;9.904;2022-08-02T06:30:16;101144.25;;;15.86;80.76
16255;BME280;8235;52.198;9.904;2022-08-02T06:32:43;101136.81;;;16.01;80.54
16255;BME280;8235;52.198;9.904;2022-08-02T06:35:10;101131.19;;;16.15;80.25
16255;BME280;8235;52.198;9.904;2022-08-02T06:37:40;101142.59;;;16.29;79.36
16255;BME280;8235;52.198;9.904;2022-08-02T06:40:13;101140.50;;;16.44;78.52
16255;BME280;8235;52.198;9.904;2022-08-02T06:42:47;101137.56;;;16.58;77.73
16255;BME280;8235;52.198;9.904;2022-08-02T06:45:17;101134.88;;;16.70;77.00
16255;BME280;8235;52.198;9.904;2022-08-02T06:47:44;101139.00;;;16.85;76.59
16255;BME280;8235;52.198;9.904;2022-08-02T06:50:10;101142.16;;;17.01;75.87
16255;BME280;8235;52.198;9.904;2022-08-02T06:52:37;101136.50;;;17.15;75.32
16255;BME280;8235;52.198;9.904;2022-08-02T06:55:05;101144.28;;;17.29;74.66
16255;BME280;8235;52.198;9.904;2022-08-02T06:57:32;101139.31;;;17.46;74.13
16255;BME280;8235;52.198;9.904;2022-08-02T06:59:59;101142.53;;;17.60;73.48
16255;BME280;8235;52.198;9.904;2022-08-02T07:02:29;101138.44;;;17.77;73.04
16255;BME280;8235;52.198;9.904;2022-08-02T07:04:56;101141.25;;;17.96;73.21
16255;BME280;8235;52.198;9.904;2022-08-02T07:07:23;101128.16;;;18.13;72.08
16255;BME280;8235;52.198;9.904;2022-08-02T07:09:50;101141.97;;;18.29;71.07
16255;BME280;8235;52.198;9.904;2022-08-02T07:12:16;101127.44;;;18.41;70.25
16255;BME280;8235;52.198;9.904;2022-08-02T07:14:43;101136.88;;;18.56;69.90
16255;BME280;8235;52.198;9.904;2022-08-02T07:17:10;101137.50;;;18.69;69.16
16255;BME280;8235;52.198;9.904;2022-08-02T07:19:38;101141.50;;;18.85;68.78
16255;BME280;8235;52.198;9.904;2022-08-02T07:22:05;101138.13;;;19.02;68.34
16255;BME280;8235;52.198;9.904;2022-08-02T07:24:31;101127.81;;;19.17;67.92
16255;BME280;8235;52.198;9.904;2022-08-02T07:26:58;101110.03;;;19.33;67.54
16255;BME280;8235;52.198;9.904;2022-08-02T07:29:25;101104.06;;;19.49;67.18
16255;BME280;8235;52.198;9.904;2022-08-02T07:31:51;101092.41;;;19.68;66.58
16255;BME280;8235;52.198;9.904;2022-08-02T07:34:18;101085.53;;;19.83;66.15
16255;BME280;8235;52.198;9.904;2022-08-02T07:36:46;101091.75;;;20.03;65.75
16255;BME280;8235;52.198;9.904;2022-08-02T07:39:12;101089.97;;;20.21;65.10
16255;BME280;8235;52.198;9.904;2022-08-02T07:41:39;101076.81;;;20.36;64.06
16255;BME280;8235;52.198;9.904;2022-08-02T07:44:05;101075.88;;;20.55;64.66
16255;BME280;8235;52.198;9.904;2022-08-02T07:46:32;101072.06;;;20.75;64.60
16255;BME280;8235;52.198;9.904;2022-08-02T07:48:58;101077.34;;;20.94;63.87
16255;BME280;8235;52.198;9.904;2022-08-02T07:51:25;101069.22;;;21.12;63.54
16255;BME280;8235;52.198;9.904;2022-08-02T07:53:53;101078.84;;;21.24;62.39
16255;BME280;8235;52.198;9.904;2022-08-02T07:56:19;101074.72;;;21.38;62.05
16255;BME280;8235;52.198;9.904;2022-08-02T07:58:46;101082.13;;;21.54;62.25
16255;BME280;8235;52.198;9.904;2022-08-02T08:01:12;101081.38;;;21.69;61.22
16255;BME280;8235;52.198;9.904;2022-08-02T08:03:39;101079.28;;;21.81;61.52
16255;BME280;8235;52.198;9.904;2022-08-02T08:06:05;101082.78;;;21.99;61.16
16255;BME280;8235;52.198;9.904;2022-08-02T08:08:33;101081.91;;;22.16;60.68
16255;BME280;8235;52.198;9.904;2022-08-02T08:11:01;101073.16;;;22.31;59.56
16255;BME280;8235;52.198;9.904;2022-08-02T08:13:27;101075.56;;;22.42;58.88
16255;BME280;8235;52.198;9.904;2022-08-02T08:15:54;101085.63;;;22.49;58.31
16255;BME280;8235;52.198;9.904;2022-08-02T08:18:20;101082.41;;;22.62;58.32
16255;BME280;8235;52.198;9.904;2022-08-02T08:20:47;101081.66;;;22.78;58.22
16255;BME280;8235;52.198;9.904;2022-08-02T08:23:14;101086.47;;;22.92;57.54
16255;BME280;8235;52.198;9.904;2022-08-02T08:25:40;101086.66;;;23.07;56.93
16255;BME280;8235;52.198;9.904;2022-08-02T08:28:08;101089.38;;;23.15;56.42
16255;BME280;8235;52.198;9.904;2022-08-02T08:30:35;101082.25;;;23.22;56.19
16255;BME280;8235;52.198;9.904;2022-08-02T08:33:01;101074.59;;;23.34;55.90
16255;BME280;8235;52.198;9.904;2022-08-02T08:35:28;101070.53;;;23.46;55.32
16255;BME280;8235;52.198;9.904;2022-08-02T08:37:55;101061.56;;;23.53;54.18
16255;BME280;8235;52.198;9.904;2022-08-02T08:40:23;101052.72;;;23.60;53.04
16255;BME280;8235;52.198;9.904;2022-08-02T08:42:50;101054.75;;;23.58;51.65
16255;BME280;8235;52.198;9.904;2022-08-02T08:45:18;101053.75;;;23.59;51.15
16255;BME280;8235;52.198;9.904;2022-08-02T08:47:50;101047.41;;;23.66;51.07
16255;BME280;8235;52.198;9.904;2022-08-02T08:50:19;101048.59;;;23.80;50.84
16255;BME280;8235;52.198;9.904;2022-08-02T08:52:48;101037.19;;;23.93;50.59
16255;BME280;8235;52.198;9.904;2022-08-02T08:55:17;101042.06;;;24.05;50.85
16255;BME280;8235;52.198;9.904;2022-08-02T08:57:47;101041.81;;;24.23;50.50
16255;BME280;8235;52.198;9.904;2022-08-02T09:00:15;101035.88;;;24.36;49.98
16255;BME280;8235;52.198;9.904;2022-08-02T09:02:43;101039.88;;;24.48;49.96
16255;BME280;8235;52.198;9.904;2022-08-02T09:05:12;101039.78;;;24.64;50.07
16255;BME280;8235;52.198;9.904;2022-08-02T09:07:40;101040.72;;;24.79;49.47
16255;BME280;8235;52.198;9.904;2022-08-02T09:10:31;101043.03;;;24.90;49.44
16255;BME280;8235;52.198;9.904;2022-08-02T09:13:09;101028.88;;;24.95;49.06
16255;BME280;8235;52.198;9.904;2022-08-02T09:15:36;101026.84;;;24.97;48.09
16255;BME280;8235;52.198;9.904;2022-08-02T09:18:05;101028.72;;;24.97;48.37
16255;BME280;8235;52.198;9.904;2022-08-02T09:20:32;101025.63;;;25.00;48.64
16255;BME280;8235;52.198;9.904;2022-08-02T09:23:07;101034.56;;;25.08;49.35
16255;BME280;8235;52.198;9.904;2022-08-02T09:25:33;101037.06;;;25.18;49.05
16255;BME280;8235;52.198;9.904;2022-08-02T09:28:02;101037.28;;;25.31;49.42
16255;BME280;8235;52.198;9.904;2022-08-02T09:30:29;101031.03;;;25.45;49.21
16255;BME280;8235;52.198;9.904;2022-08-02T09:32:56;101034.72;;;25.52;48.31
16255;BME280;8235;52.198;9.904;2022-08-02T09:35:34;101032.28;;;25.57;47.09
16255;BME280;8235;52.198;9.904;2022-08-02T09:38:08;101025.25;;;25.63;46.82
16255;BME280;8235;52.198;9.904;2022-08-02T09:40:35;101024.91;;;25.66;46.24
16255;BME280;8235;52.198;9.904;2022-08-02T09:43:02;101023.69;;;25.69;45.97
16255;BME280;8235;52.198;9.904;2022-08-02T09:45:29;101027.44;;;25.68;45.62
16255;BME280;8235;52.198;9.904;2022-08-02T09:47:57;101024.91;;;25.66;45.62
16255;BME280;8235;52.198;9.904;2022-08-02T09:50:23;101018.50;;;25.74;45.32
16255;BME280;8235;52.198;9.904;2022-08-02T09:52:54;101015.03;;;25.80;45.31
16255;BME280;8235;52.198;9.904;2022-08-02T09:55:21;101021.06;;;25.90;45.06
16255;BME280;8235;52.198;9.904;2022-08-02T09:57:47;101019.47;;;25.96;43.27
16255;BME280;8235;52.198;9.904;2022-08-02T10:00:14;101027.06;;;26.00;42.70
16255;BME280;8235;52.198;9.904;2022-08-02T10:03:06;101019.47;;;26.10;41.97
16255;BME280;8235;52.198;9.904;2022-08-02T10:05:46;101025.84;;;26.17;41.60
16255;BME280;8235;52.198;9.904;2022-08-02T10:08:16;101023.03;;;26.25;41.28
16255;BME280;8235;52.198;9.904;2022-08-02T10:10:43;101017.69;;;26.32;40.08
16255;BME280;8235;52.198;9.904;2022-08-02T10:13:10;101010.59;;;26.38;40.37
16255;BME280;8235;52.198;9.904;2022-08-02T10:15:37;101012.19;;;26.47;39.46
16255;BME280;8235;52.198;9.904;2022-08-02T10:18:04;101020.63;;;26.52;39.36
16255;BME280;8235;52.198;9.904;2022-08-02T10:20:35;101014.03;;;26.61;39.76
16255;BME280;8235;52.198;9.904;2022-08-02T10:23:04;101015.59;;;26.70;39.72
16255;BME280;8235;52.198;9.904;2022-08-02T10:25:35;101020.28;;;26.76;39.16
16255;BME280;8235;52.198;9.904;2022-08-02T10:28:03;101006.31;;;26.86;39.20
16255;BME280;8235;52.198;9.904;2022-08-02T10:30:32;101010.16;;;26.91;39.08
16255;BME280;8235;52.198;9.904;2022-08-02T10:33:01;101003.94;;;26.98;38.72
16255;BME280;8235;52.198;9.904;2022-08-02T10:35:32;101002.72;;;27.00;38.10
16255;BME280;8235;52.198;9.904;2022-08-02T10:38:00;101007.84;;;27.10;38.29
16255;BME280;8235;52.198;9.904;2022-08-02T10:40:43;100994.88;;;27.18;38.09
16255;BME280;8235;52.198;9.904;2022-08-02T10:43:11;101005.25;;;27.23;37.99
16255;BME280;8235;52.198;9.904;2022-08-02T10:45:38;100997.91;;;27.30;37.66
16255;BME280;8235;52.198;9.904;2022-08-02T10:48:07;100997.13;;;27.36;37.48
16255;BME280;8235;52.198;9.904;2022-08-02T10:50:54;100995.09;;;27.45;37.80
16255;BME280;8235;52.198;9.904;2022-08-02T10:53:25;100993.25;;;27.52;37.57
16255;BME280;8235;52.198;9.904;2022-08-02T10:55:55;100987.88;;;27.58;37.19
16255;BME280;8235;52.198;9.904;2022-08-02T10:58:24;100984.50;;;27.63;36.19
16255;BME280;8235;52.198;9.904;2022-08-02T11:00:52;100982.63;;;27.63;35.55
16255;BME280;8235;52.198;9.904;2022-08-02T11:03:36;100986.47;;;27.69;35.43
16255;BME280;8235;52.198;9.904;2022-08-02T11:06:08;100983.78;;;27.76;35.01
16255;BME280;8235;52.198;9.904;2022-08-02T11:08:37;100983.59;;;27.84;34.94
16255;BME280;8235;52.198;9.904;2022-08-02T11:11:16;100986.38;;;27.90;34.36
16255;BME280;8235;52.198;9.904;2022-08-02T11:14:00;100983.66;;;27.97;34.47
16255;BME280;8235;52.198;9.904;2022-08-02T11:19:29;100990.09;;;28.17;34.40
16255;BME280;8235;52.198;9.904;2022-08-02T11:22:01;100981.09;;;28.23;33.71
16255;BME280;8235;52.198;9.904;2022-08-02T11:24:29;100984.94;;;28.29;33.38
16255;BME280;8235;52.198;9.904;2022-08-02T11:26:58;100985.97;;;28.28;33.52
16255;BME280;8235;52.198;9.904;2022-08-02T11:29:35;100988.50;;;28.29;33.82
16255;BME280;8235;52.198;9.904;2022-08-02T11:32:03;100988.72;;;28.34;34.28
16255;BME280;8235;52.198;9.904;2022-08-02T11:34:33;100986.84;;;28.42;34.89
16255;BME280;8235;52.198;9.904;2022-08-02T11:37:00;100978.66;;;28.48;34.86
16255;BME280;8235;52.198;9.904;2022-08-02T11:39:26;100971.25;;;28.49;35.02
16255;BME280;8235;52.198;9.904;2022-08-02T11:41:54;100976.34;;;28.52;34.97
16255;BME280;8235;52.198;9.904;2022-08-02T11:44:28;100986.03;;;28.54;35.05
16255;BME280;8235;52.198;9.904;2022-08-02T11:46:55;100981.41;;;28.55;34.65
16255;BME280;8235;52.198;9.904;2022-08-02T11:49:23;100973.81;;;28.57;34.59
16255;BME280;8235;52.198;9.904;2022-08-02T11:51:51;100986.91;;;28.61;34.73
16255;BME280;8235;52.198;9.904;2022-08-02T11:54:22;100974.91;;;28.62;34.56
16255;BME280;8235;52.198;9.904;2022-08-02T11:56:48;100969.88;;;28.66;34.87
16255;BME280;8235;52.198;9.904;2022-08-02T11:59:15;100967.31;;;28.71;35.22
16255;BME280;8235;52.198;9.904;2022-08-02T12:01:43;100959.13;;;28.78;35.22
16255;BME280;8235;52.198;9.904;2022-08-02T12:04:09;100963.38;;;28.80;35.49
16255;BME280;8235;52.198;9.904;2022-08-02T12:06:36;100960.41;;;28.88;35.43
16255;BME280;8235;52.198;9.904;2022-08-02T12:09:04;100950.31;;;28.95;35.29
16255;BME280;8235;52.198;9.904;2022-08-02T12:11:31;100949.69;;;29.00;34.73
16255;BME280;8235;52.198;9.904;2022-08-02T12:13:58;100948.19;;;29.04;34.91
16255;BME280;8235;52.198;9.904;2022-08-02T12:16:32;100947.34;;;29.10;34.75
16255;BME280;8235;52.198;9.904;2022-08-02T12:19:18;100946.31;;;29.11;34.31
16255;BME280;8235;52.198;9.904;2022-08-02T12:21:47;100943.56;;;29.11;34.01
16255;BME280;8235;52.198;9.904;2022-08-02T12:24:26;100937.66;;;29.14;34.44
16255;BME280;8235;52.198;9.904;2022-08-02T12:26:53;100947.78;;;29.14;34.03
16255;BME280;8235;52.198;9.904;2022-08-02T12:29:28;100940.41;;;29.14;34.45
16255;BME280;8235;52.198;9.904;2022-08-02T12:31:54;100940.81;;;29.11;34.12
16255;BME280;8235;52.198;9.904;2022-08-02T12:34:22;100934.50;;;29.11;34.35
16255;BME280;8235;52.198;9.904;2022-08-02T12:37:00;100940.19;;;29.16;34.55
16255;BME280;8235;52.198;9.904;2022-08-02T12:39:38;100935.53;;;29.23;34.45
16255;BME280;8235;52.198;9.904;2022-08-02T12:42:08;100934.06;;;29.27;35.14
16255;BME280;8235;52.198;9.904;2022-08-02T12:44:36;100937.00;;;29.32;34.77
16255;BME280;8235;52.198;9.904;2022-08-02T12:47:05;100938.50;;;29.34;35.08
16255;BME280;8235;52.198;9.904;2022-08-02T12:49:34;100933.63;;;29.36;35.16
16255;BME280;8235;52.198;9.904;2022-08-02T12:52:00;100929.41;;;29.41;34.68
16255;BME280;8235;52.198;9.904;2022-08-02T12:54:29;100927.09;;;29.44;35.25
16255;BME280;8235;52.198;9.904;2022-08-02T12:56:56;100925.19;;;29.51;35.34
16255;BME280;8235;52.198;9.904;2022-08-02T12:59:33;100917.34;;;29.61;34.75
16255;BME280;8235;52.198;9.904;2022-08-02T13:02:01;100917.97;;;29.70;34.39
16255;BME280;8235;52.198;9.904;2022-08-02T13:04:28;100916.25;;;29.76;34.10
16255;BME280;8235;52.198;9.904;2022-08-02T13:06:56;100917.50;;;29.80;33.86
16255;BME280;8235;52.198;9.904;2022-08-02T13:09:22;100916.88;;;29.78;34.38
16255;BME280;8235;52.198;9.904;2022-08-02T13:11:49;100908.00;;;29.76;34.06